Guayaquil Express — DJQC2 — position and weather

sailwx.info

Track history (hours):
 
Tides and Currents Weather Stations Pressure Air Temp Water Temp Dewpoint Dewpoint Depression Visibility Wind Speed Wind Dir Waves Ship Positions

Guayaquil Express

Last reported at 2017-Nov-15 18:00 UTC. Time now 2017-Nov-18 10:32 UTC.
Position S 07°12' W 080°54'.

Length 333 m; draft 12.9 m.

Type: Cargo ship. MMSI: 218851000.

Wind from 170 at 10 knots

Barometer 1014.0 mb
Air temperature 21.2 ° C
Visibility: greater than 5.4 NM
Dewpoint 14.1 ° C
Water temperature 18.0 ° C

Date/timePositionNaut miles runAvg speedWind from/ knotsBaromVisibWave heightAir tempDewpointWater temp
2017-Nov-15 18:00S 07°12' W 080°54'56411.8 170 / 101014.0 5.4 21.214.118.0
2017-Nov-13 18:00N 02°06' W 079°30'85 7.1 240 / 241009.410.8 26.119.026.0
2017-Nov-13 06:00N 03°06' W 078°30'116 3.2 230 / 171008.710.8 25.521.826.0
2017-Nov-11 18:00N 05°00' W 078°06'293 7.5 240 / 71008.110.8 27.723.326.0
2017-Nov-10 03:00N 09°30' W 080°00'187 5.7 250 / 121010.2 5.4 25.722.828.0
2017-Nov-08 18:00N 10°06' W 076°54'5211.4 350 / 41007.610.8 29.423.429.0
2017-Nov-08 13:27N 10°15' W 076°02'5 8.3
2017-Nov-08 12:51N 10°17' W 075°57'513.0
2017-Nov-08 12:30N 10°17' W 075°53'612.3
2017-Nov-08 12:00N 10°18' W 075°47'612.1
2017-Nov-08 11:30N 10°19' W 075°40'510.7
2017-Nov-08 11:00N 10°19' W 075°35'4 8.1
2017-Nov-08 10:30N 10°21' W 075°31'2 3.6
2017-Nov-08 10:00N 10°23' W 075°31'0 0.1
2017-Nov-08 09:30N 10°23' W 075°31'0 0.0
2017-Nov-08 08:03N 10°23' W 075°31'0 0.0
2017-Nov-08 08:00N 10°23' W 075°31'0 0.0
2017-Nov-08 07:27N 10°23' W 075°31'0 0.0
2017-Nov-08 06:57N 10°23' W 075°31'0 0.0
2017-Nov-08 06:30N 10°23' W 075°31'0 0.0
2017-Nov-08 05:57N 10°23' W 075°31'0 0.0
2017-Nov-08 05:30N 10°23' W 075°31'0 0.0
2017-Nov-08 05:00N 10°23' W 075°31'0 0.0
2017-Nov-08 04:30N 10°23' W 075°31'0 0.0
2017-Nov-08 03:57N 10°23' W 075°31'0 0.0
2017-Nov-08 03:30N 10°23' W 075°31'0 0.0
2017-Nov-08 02:57N 10°23' W 075°31'0 0.0
2017-Nov-08 02:27N 10°23' W 075°31'0 0.0
2017-Nov-08 02:00N 10°23' W 075°31'0 0.0
2017-Nov-08 01:27N 10°23' W 075°31'0 0.0
2017-Nov-08 01:00N 10°23' W 075°31'0 0.0
2017-Nov-08 00:27N 10°23' W 075°31'0 0.0
2017-Nov-08 00:00N 10°23' W 075°31'0 0.0
2017-Nov-07 23:30N 10°23' W 075°31'0 0.0
2017-Nov-07 22:57N 10°23' W 075°31'0 0.0
2017-Nov-07 22:30N 10°23' W 075°31'0 0.0
2017-Nov-07 22:00N 10°23' W 075°31'0 0.0
2017-Nov-07 21:27N 10°23' W 075°31'0 0.0
2017-Nov-07 20:57N 10°23' W 075°31'0 0.0
2017-Nov-07 20:30N 10°23' W 075°31'0 0.0
2017-Nov-07 20:00N 10°23' W 075°31'0 0.0
2017-Nov-07 19:27N 10°23' W 075°31'0 0.0
2017-Nov-07 19:00N 10°23' W 075°31'0 0.0
2017-Nov-07 18:27N 10°23' W 075°31'0 0.0
2017-Nov-07 18:00N 10°23' W 075°31'0 0.0
2017-Nov-07 17:30N 10°23' W 075°31'0 0.0
2017-Nov-07 17:00N 10°23' W 075°31'0 0.0
2017-Nov-07 16:27N 10°23' W 075°31'0 0.0
2017-Nov-07 16:00N 10°23' W 075°31'0 0.0
2017-Nov-07 15:24N 10°23' W 075°31'0 0.0
2017-Nov-07 14:57N 10°23' W 075°31'0 0.0
2017-Nov-07 14:30N 10°23' W 075°31'0 0.0
2017-Nov-07 14:00N 10°23' W 075°31'0 0.0
2017-Nov-07 13:30N 10°23' W 075°31'0 0.0
2017-Nov-07 13:00N 10°23' W 075°31'0 0.0
2017-Nov-07 12:27N 10°23' W 075°31'0 0.2
2017-Nov-07 12:00N 10°23' W 075°31'2 4.5
2017-Nov-07 11:30N 10°21' W 075°31'510.2
2017-Nov-07 11:00N 10°19' W 075°36'4 7.6
2017-Nov-07 10:30N 10°19' W 075°40'5 9.9
2017-Nov-07 10:00N 10°22' W 075°44'816.7
2017-Nov-07 09:30N 10°30' W 075°41'5916.9
2017-Nov-07 06:00N 11°18' W 075°06'668.7 020 / 121009.910.8 25.823.829.0
2017-Nov-07 05:54N 11°24' W 075°06'21818.3
2017-Nov-06 18:00N 14°06' W 072°36'22919.1 110 / 171011.710.8 32.124.229.0
2017-Nov-06 06:00N 16°42' W 069°42'13322.1 090 / 111013.310.8 26.923.628.0
2017-Nov-06 00:00N 18°12' W 068°00'   110 / 111015.010.8 26.022.928.0
Track history (hours):
 
Tides and Currents Weather Stations Pressure Air Temp Water Temp Dewpoint Dewpoint Depression Visibility Wind Speed Wind Dir Waves Ship Positions

Guayaquil Express

Last reported at 2017-Nov-15 18:00 UTC. Time now 2017-Nov-18 10:32 UTC.
Position S 07°12' W 080°54'.

Length 333 m; draft 12.9 m.

Type: Cargo ship. MMSI: 218851000.

Wind from 170 at 10 knots

Barometer 1014.0 mb
Air temperature 21.2 ° C
Visibility: greater than 5.4 NM
Dewpoint 14.1 ° C
Water temperature 18.0 ° C

Date/timePositionNaut miles runAvg speedWind from/ knotsBaromVisibWave heightAir tempDewpointWater temp
2017-Nov-15 18:00S 07°12' W 080°54'56411.8 170 / 101014.0 5.4 21.214.118.0
2017-Nov-13 18:00N 02°06' W 079°30'85 7.1 240 / 241009.410.8 26.119.026.0
2017-Nov-13 06:00N 03°06' W 078°30'116 3.2 230 / 171008.710.8 25.521.826.0
2017-Nov-11 18:00N 05°00' W 078°06'293 7.5 240 / 71008.110.8 27.723.326.0
2017-Nov-10 03:00N 09°30' W 080°00'187 5.7 250 / 121010.2 5.4 25.722.828.0
2017-Nov-08 18:00N 10°06' W 076°54'5211.4 350 / 41007.610.8 29.423.429.0
2017-Nov-08 13:27N 10°15' W 076°02'5 8.3
2017-Nov-08 12:51N 10°17' W 075°57'513.0
2017-Nov-08 12:30N 10°17' W 075°53'612.3
2017-Nov-08 12:00N 10°18' W 075°47'612.1
2017-Nov-08 11:30N 10°19' W 075°40'510.7
2017-Nov-08 11:00N 10°19' W 075°35'4 8.1
2017-Nov-08 10:30N 10°21' W 075°31'2 3.6
2017-Nov-08 10:00N 10°23' W 075°31'0 0.1
2017-Nov-08 09:30N 10°23' W 075°31'0 0.0
2017-Nov-08 08:03N 10°23' W 075°31'0 0.0
2017-Nov-08 08:00N 10°23' W 075°31'0 0.0
2017-Nov-08 07:27N 10°23' W 075°31'0 0.0
2017-Nov-08 06:57N 10°23' W 075°31'0 0.0
2017-Nov-08 06:30N 10°23' W 075°31'0 0.0
2017-Nov-08 05:57N 10°23' W 075°31'0 0.0
2017-Nov-08 05:30N 10°23' W 075°31'0 0.0
2017-Nov-08 05:00N 10°23' W 075°31'0 0.0
2017-Nov-08 04:30N 10°23' W 075°31'0 0.0
2017-Nov-08 03:57N 10°23' W 075°31'0 0.0
2017-Nov-08 03:30N 10°23' W 075°31'0 0.0
2017-Nov-08 02:57N 10°23' W 075°31'0 0.0
2017-Nov-08 02:27N 10°23' W 075°31'0 0.0
2017-Nov-08 02:00N 10°23' W 075°31'0 0.0
2017-Nov-08 01:27N 10°23' W 075°31'0 0.0
2017-Nov-08 01:00N 10°23' W 075°31'0 0.0
2017-Nov-08 00:27N 10°23' W 075°31'0 0.0
2017-Nov-08 00:00N 10°23' W 075°31'0 0.0
2017-Nov-07 23:30N 10°23' W 075°31'0 0.0
2017-Nov-07 22:57N 10°23' W 075°31'0 0.0
2017-Nov-07 22:30N 10°23' W 075°31'0 0.0
2017-Nov-07 22:00N 10°23' W 075°31'0 0.0
2017-Nov-07 21:27N 10°23' W 075°31'0 0.0
2017-Nov-07 20:57N 10°23' W 075°31'0 0.0
2017-Nov-07 20:30N 10°23' W 075°31'0 0.0
2017-Nov-07 20:00N 10°23' W 075°31'0 0.0
2017-Nov-07 19:27N 10°23' W 075°31'0 0.0
2017-Nov-07 19:00N 10°23' W 075°31'0 0.0
2017-Nov-07 18:27N 10°23' W 075°31'0 0.0
2017-Nov-07 18:00N 10°23' W 075°31'0 0.0
2017-Nov-07 17:30N 10°23' W 075°31'0 0.0
2017-Nov-07 17:00N 10°23' W 075°31'0 0.0
2017-Nov-07 16:27N 10°23' W 075°31'0 0.0
2017-Nov-07 16:00N 10°23' W 075°31'0 0.0
2017-Nov-07 15:24N 10°23' W 075°31'0 0.0
2017-Nov-07 14:57N 10°23' W 075°31'0 0.0
2017-Nov-07 14:30N 10°23' W 075°31'0 0.0
2017-Nov-07 14:00N 10°23' W 075°31'0 0.0
2017-Nov-07 13:30N 10°23' W 075°31'0 0.0
2017-Nov-07 13:00N 10°23' W 075°31'0 0.0
2017-Nov-07 12:27N 10°23' W 075°31'0 0.2
2017-Nov-07 12:00N 10°23' W 075°31'2 4.5
2017-Nov-07 11:30N 10°21' W 075°31'510.2
2017-Nov-07 11:00N 10°19' W 075°36'4 7.6
2017-Nov-07 10:30N 10°19' W 075°40'5 9.9
2017-Nov-07 10:00N 10°22' W 075°44'816.7
2017-Nov-07 09:30N 10°30' W 075°41'5916.9
2017-Nov-07 06:00N 11°18' W 075°06'668.7 020 / 121009.910.8 25.823.829.0
2017-Nov-07 05:54N 11°24' W 075°06'21818.3
2017-Nov-06 18:00N 14°06' W 072°36'22919.1 110 / 171011.710.8 32.124.229.0
2017-Nov-06 06:00N 16°42' W 069°42'13322.1 090 / 111013.310.8 26.923.628.0
2017-Nov-06 00:00N 18°12' W 068°00'   110 / 111015.010.8 26.022.928.0

Dump ship's entire track history